createdAt,value
2022-11-29T00:01:23.297Z,2.70
2022-11-29T00:06:26.507Z,2.80
2022-11-29T00:09:05.653Z,2.70
2022-11-29T00:11:54.730Z,2.60
2022-11-29T00:14:22.848Z,3.10
2022-11-29T00:16:53.396Z,2.30
2022-11-29T00:19:20.666Z,2.80
2022-11-29T00:21:47.496Z,3.40
2022-11-29T00:24:14.190Z,2.90
2022-11-29T00:26:41.341Z,2.40
2022-11-29T00:29:10.125Z,2.30
2022-11-29T00:31:36.832Z,4.10
2022-11-29T00:34:06.347Z,2.80
2022-11-29T00:36:34.330Z,2.60
2022-11-29T00:39:02.352Z,2.70
2022-11-29T00:41:29.372Z,2.70
2022-11-29T00:43:56.139Z,2.50
2022-11-29T00:46:23.186Z,2.40
2022-11-29T00:48:49.896Z,2.70
2022-11-29T00:51:16.542Z,3.10
2022-11-29T00:53:43.268Z,3.00
2022-11-29T00:56:10.078Z,3.70
2022-11-29T00:58:36.793Z,2.70
2022-11-29T01:01:04.221Z,3.00
2022-11-29T01:03:31.498Z,2.70
2022-11-29T01:06:09.072Z,3.20
2022-11-29T01:08:36.568Z,2.50
2022-11-29T01:11:09.929Z,3.30
2022-11-29T01:13:36.711Z,3.10
2022-11-29T01:16:05.352Z,2.70
2022-11-29T01:18:33.012Z,2.60
2022-11-29T01:21:07.891Z,2.70
2022-11-29T01:23:35.726Z,2.50
2022-11-29T01:26:07.136Z,2.30
2022-11-29T01:31:11.700Z,2.70
2022-11-29T01:33:38.696Z,2.50
2022-11-29T01:36:07.632Z,2.10
2022-11-29T01:38:35.768Z,2.50
2022-11-29T01:41:07.659Z,2.30
2022-11-29T01:43:58.108Z,2.60
2022-11-29T01:46:45.526Z,2.70
2022-11-29T01:49:41.195Z,2.60
2022-11-29T01:52:17.503Z,2.30
2022-11-29T01:54:48.049Z,2.20
2022-11-29T01:57:15.927Z,2.20
2022-11-29T01:59:48.480Z,2.70
2022-11-29T02:02:21.654Z,2.20
2022-11-29T02:04:49.016Z,2.50
2022-11-29T02:07:16.121Z,2.50
2022-11-29T02:09:43.416Z,2.40
2022-11-29T02:12:22.351Z,2.80
2022-11-29T02:14:57.975Z,2.70
2022-11-29T02:17:37.166Z,2.30
2022-11-29T02:20:32.680Z,2.30
2022-11-29T02:23:20.400Z,2.40
2022-11-29T02:26:24.510Z,2.10
2022-11-29T02:29:24.933Z,2.50
2022-11-29T02:32:21.594Z,2.50
2022-11-29T02:35:09.429Z,2.60
2022-11-29T02:38:14.468Z,2.80
2022-11-29T02:41:10.172Z,2.60
2022-11-29T02:44:31.155Z,2.60
2022-11-29T02:47:27.448Z,2.40
2022-11-29T02:50:12.557Z,2.70
2022-11-29T02:52:55.315Z,4.00
2022-11-29T02:55:36.919Z,4.70
2022-11-29T02:58:49.829Z,6.30
2022-11-29T03:02:01.628Z,7.60
2022-11-29T03:07:33.011Z,6.90
2022-11-29T03:10:19.807Z,7.40
2022-11-29T03:12:52.448Z,7.70
2022-11-29T03:15:41.675Z,8.20
2022-11-29T03:18:27.307Z,7.70
2022-11-29T03:21:17.100Z,6.70
2022-11-29T03:23:54.064Z,6.50
2022-11-29T03:26:40.561Z,7.70
2022-11-29T03:29:45.759Z,8.30
2022-11-29T03:32:24.681Z,7.90
2022-11-29T03:35:00.091Z,7.40
2022-11-29T03:37:40.433Z,7.30
2022-11-29T03:40:12.681Z,6.90
2022-11-29T03:43:00.301Z,6.90
2022-11-29T03:45:48.304Z,5.60
2022-11-29T03:48:30.950Z,5.10
2022-11-29T03:51:06.350Z,4.10
2022-11-29T03:53:41.452Z,3.60
2022-11-29T03:56:32.841Z,3.50
2022-11-29T03:59:23.721Z,3.20
2022-11-29T04:02:25.552Z,3.20
2022-11-29T04:05:23.408Z,3.60
2022-11-29T04:08:37.219Z,3.40
2022-11-29T04:11:09.143Z,3.10
2022-11-29T04:14:14.185Z,3.30
2022-11-29T04:17:11.548Z,2.80
2022-11-29T04:20:10.278Z,3.20
2022-11-29T04:23:24.959Z,3.20
2022-11-29T04:26:00.365Z,3.30
2022-11-29T04:28:50.015Z,3.00
2022-11-29T04:31:36.018Z,2.90
2022-11-29T04:34:17.608Z,3.10
2022-11-29T04:39:57.270Z,3.10
2022-11-29T04:45:37.006Z,3.10
2022-11-29T04:48:44.045Z,2.70
2022-11-29T04:51:31.882Z,3.90
2022-11-29T04:54:25.948Z,3.40
2022-11-29T04:57:05.252Z,3.80
2022-11-29T04:59:48.626Z,3.60
2022-11-29T05:02:27.260Z,3.80
2022-11-29T05:05:12.558Z,3.40
2022-11-29T05:07:54.827Z,3.40
2022-11-29T05:10:33.609Z,3.30
2022-11-29T05:13:24.245Z,3.60
2022-11-29T05:16:11.271Z,3.70
2022-11-29T05:18:59.817Z,4.70
2022-11-29T05:21:47.495Z,4.10
2022-11-29T05:24:29.910Z,4.10
2022-11-29T05:27:14.735Z,3.60
2022-11-29T05:30:14.714Z,3.90
2022-11-29T05:33:17.217Z,3.60
2022-11-29T05:36:16.424Z,3.80
2022-11-29T05:39:05.215Z,3.90
2022-11-29T05:41:53.101Z,4.30
2022-11-29T05:44:35.186Z,6.80
2022-11-29T05:47:09.360Z,6.20
2022-11-29T05:50:11.649Z,5.30
2022-11-29T05:52:40.997Z,7.10
2022-11-29T05:55:13.352Z,7.60
2022-11-29T05:57:51.912Z,7.30
2022-11-29T06:00:19.509Z,7.70
2022-11-29T06:03:05.303Z,7.70
2022-11-29T06:05:59.986Z,7.60
2022-11-29T06:08:49.937Z,8.30
2022-11-29T06:11:31.947Z,8.70
2022-11-29T06:14:07.732Z,9.30
2022-11-29T06:17:18.231Z,7.80
2022-11-29T06:19:57.318Z,9.50
2022-11-29T06:23:02.053Z,9.60
2022-11-29T06:25:50.809Z,9.00
2022-11-29T06:29:01.023Z,9.80
2022-11-29T06:31:55.637Z,9.30
2022-11-29T06:34:31.339Z,10.00
2022-11-29T06:37:03.045Z,10.00
2022-11-29T06:39:30.070Z,9.30
2022-11-29T06:41:56.692Z,11.40
2022-11-29T06:44:23.730Z,9.60
2022-11-29T06:46:59.339Z,9.90
2022-11-29T06:49:55.315Z,9.20
2022-11-29T06:52:27.760Z,8.90
2022-11-29T06:55:22.582Z,8.50
2022-11-29T06:58:19.233Z,9.20
2022-11-29T07:01:17.838Z,8.80
2022-11-29T07:04:48.577Z,9.00
2022-11-29T07:07:21.152Z,9.10
2022-11-29T07:09:52.751Z,9.70
2022-11-29T07:12:20.156Z,9.60
2022-11-29T07:14:47.491Z,10.10
2022-11-29T07:17:30.020Z,9.80
2022-11-29T07:21:04.973Z,9.50
2022-11-29T07:23:44.887Z,9.80
2022-11-29T07:26:25.515Z,10.60
2022-11-29T07:29:13.873Z,10.80
2022-11-29T07:32:20.475Z,10.40
2022-11-29T07:35:09.750Z,9.30
2022-11-29T07:37:56.864Z,9.30
2022-11-29T07:40:42.510Z,10.00
2022-11-29T07:43:22.439Z,9.70
2022-11-29T07:45:49.405Z,9.40
2022-11-29T07:48:17.286Z,9.80
2022-11-29T07:50:44.572Z,8.80
2022-11-29T07:53:17.893Z,7.80
2022-11-29T07:55:45.912Z,9.20
2022-11-29T07:58:14.617Z,8.20
2022-11-29T08:00:42.826Z,8.70
2022-11-29T08:03:10.292Z,9.50
2022-11-29T08:05:37.959Z,8.10
2022-11-29T08:08:05.448Z,10.20
2022-11-29T08:10:32.312Z,10.40
2022-11-29T08:12:58.929Z,10.90
2022-11-29T08:15:25.677Z,11.00
2022-11-29T08:17:52.639Z,13.60
2022-11-29T08:20:20.064Z,12.60
2022-11-29T08:22:58.555Z,14.00
2022-11-29T08:25:27.229Z,15.40
2022-11-29T08:27:55.027Z,16.10
2022-11-29T08:30:22.771Z,17.80
2022-11-29T08:32:51.804Z,16.90
2022-11-29T08:35:21.150Z,17.70
2022-11-29T08:37:48.027Z,16.80
2022-11-29T08:40:16.022Z,17.00
2022-11-29T08:42:42.729Z,15.60
2022-11-29T08:45:10.585Z,15.80
2022-11-29T08:47:40.403Z,15.10
2022-11-29T08:50:13.886Z,17.30
2022-11-29T08:53:03.627Z,15.30
2022-11-29T08:55:34.281Z,14.30
2022-11-29T08:58:07.193Z,16.60
2022-11-29T09:00:35.106Z,15.80
2022-11-29T09:03:23.126Z,15.10
2022-11-29T09:05:50.140Z,15.10
2022-11-29T09:08:16.931Z,13.60
2022-11-29T09:10:44.293Z,14.20
2022-11-29T09:13:11.995Z,15.00
2022-11-29T09:15:41.450Z,15.30
2022-11-29T09:18:08.329Z,14.90
2022-11-29T09:20:35.266Z,16.10
2022-11-29T09:23:02.930Z,15.10
2022-11-29T09:25:29.773Z,16.90
2022-11-29T09:28:02.184Z,14.50
2022-11-29T09:30:30.896Z,13.90
2022-11-29T09:33:04.337Z,13.90
2022-11-29T09:35:32.213Z,16.60
2022-11-29T09:37:58.941Z,15.00
2022-11-29T09:40:37.411Z,14.60
2022-11-29T09:43:33.674Z,13.90
2022-11-29T09:46:36.153Z,12.20
2022-11-29T09:49:23.828Z,12.60
2022-11-29T09:52:00.395Z,12.50
2022-11-29T09:55:09.579Z,11.40
2022-11-29T09:57:38.205Z,11.60
2022-11-29T10:00:15.269Z,11.00
2022-11-29T10:02:50.577Z,11.40
2022-11-29T10:05:25.304Z,12.90
2022-11-29T10:08:09.048Z,11.20
2022-11-29T10:10:43.503Z,10.40
2022-11-29T10:13:16.033Z,10.30
2022-11-29T10:15:45.521Z,10.40
2022-11-29T10:18:23.243Z,9.50
2022-11-29T10:20:52.206Z,10.40
2022-11-29T10:23:34.952Z,9.60
2022-11-29T10:26:06.724Z,10.60
2022-11-29T10:28:36.147Z,9.40
2022-11-29T10:31:23.147Z,9.30
2022-11-29T10:33:50.371Z,9.00
2022-11-29T10:37:00.990Z,9.30
2022-11-29T10:40:03.872Z,9.00
2022-11-29T10:42:49.505Z,11.20
2022-11-29T10:45:21.496Z,10.70
2022-11-29T10:47:50.140Z,10.80
2022-11-29T10:50:25.336Z,11.30
2022-11-29T10:53:09.477Z,11.70
2022-11-29T10:55:52.869Z,11.60
2022-11-29T10:58:28.238Z,11.70
2022-11-29T11:01:09.736Z,11.50
2022-11-29T11:03:52.826Z,11.00
2022-11-29T11:06:42.453Z,11.60
2022-11-29T11:09:42.079Z,11.80
2022-11-29T11:12:15.634Z,11.70
2022-11-29T11:14:47.879Z,11.30
2022-11-29T11:17:22.293Z,11.30
2022-11-29T11:20:04.334Z,11.80
2022-11-29T11:22:32.894Z,11.10
2022-11-29T11:25:28.170Z,12.20
2022-11-29T11:27:57.396Z,12.40
2022-11-29T11:30:27.960Z,11.80
2022-11-29T11:33:19.426Z,12.70
2022-11-29T11:36:21.083Z,11.80
2022-11-29T11:38:57.901Z,11.20
2022-11-29T11:41:53.817Z,10.00
2022-11-29T11:44:49.853Z,10.80
2022-11-29T11:47:23.640Z,10.30
2022-11-29T11:50:02.737Z,8.90
2022-11-29T11:52:41.953Z,9.00
2022-11-29T11:55:32.964Z,8.70
2022-11-29T11:58:11.698Z,7.40
2022-11-29T12:01:03.350Z,8.10
2022-11-29T12:04:05.905Z,8.90
2022-11-29T12:07:02.308Z,8.70
2022-11-29T12:09:54.150Z,7.60
2022-11-29T12:12:30.478Z,8.40
2022-11-29T12:15:20.560Z,8.50
2022-11-29T12:18:13.852Z,8.50
2022-11-29T12:21:00.287Z,8.70
2022-11-29T12:23:29.745Z,10.30
2022-11-29T12:26:19.237Z,9.80
2022-11-29T12:28:59.779Z,9.70
2022-11-29T12:31:48.067Z,9.40
2022-11-29T12:34:43.393Z,9.50
2022-11-29T12:37:42.117Z,9.20
2022-11-29T12:40:22.110Z,8.80
2022-11-29T12:43:10.226Z,9.40
2022-11-29T12:45:48.282Z,9.30
2022-11-29T12:48:48.535Z,9.30
2022-11-29T12:51:49.415Z,9.00
2022-11-29T12:54:41.829Z,9.80
2022-11-29T12:57:26.670Z,9.00
2022-11-29T13:00:18.631Z,8.00
2022-11-29T13:03:20.972Z,7.80
2022-11-29T13:06:21.611Z,8.20
2022-11-29T13:09:43.252Z,7.90
2022-11-29T13:12:42.419Z,7.70
2022-11-29T13:15:24.913Z,6.10
2022-11-29T13:18:05.358Z,6.00
2022-11-29T13:21:12.978Z,4.20
2022-11-29T13:24:10.604Z,4.80
2022-11-29T13:26:39.577Z,4.50
2022-11-29T13:29:16.648Z,4.70
2022-11-29T13:31:45.996Z,3.30
2022-11-29T13:34:24.504Z,3.80
2022-11-29T13:37:04.090Z,3.40
2022-11-29T13:39:57.424Z,5.00
2022-11-29T13:42:48.254Z,4.60
2022-11-29T13:46:01.063Z,5.10
2022-11-29T13:48:28.436Z,5.80
2022-11-29T13:51:36.243Z,6.00
2022-11-29T13:54:12.129Z,5.70
2022-11-29T13:56:45.754Z,5.50
2022-11-29T13:59:27.202Z,4.40
2022-11-29T14:04:43.173Z,3.10
2022-11-29T14:07:18.183Z,3.60
2022-11-29T14:09:50.589Z,4.50
2022-11-29T14:12:37.704Z,4.00
2022-11-29T14:15:33.068Z,4.30
2022-11-29T14:18:04.599Z,3.70
2022-11-29T14:20:31.824Z,3.70
2022-11-29T14:23:04.706Z,3.30
2022-11-29T14:28:20.796Z,3.70
2022-11-29T14:30:54.304Z,4.20
2022-11-29T14:33:50.854Z,5.50
2022-11-29T14:36:25.288Z,5.60
2022-11-29T14:39:27.655Z,6.30
2022-11-29T14:42:17.892Z,8.10
2022-11-29T14:45:00.065Z,7.90
2022-11-29T14:47:31.348Z,7.60
2022-11-29T14:50:02.931Z,7.00
2022-11-29T14:52:39.643Z,8.90
2022-11-29T14:55:24.454Z,8.00
2022-11-29T14:57:56.709Z,8.90
2022-11-29T15:00:32.208Z,8.00
2022-11-29T15:03:32.470Z,7.60
2022-11-29T15:06:25.826Z,7.50
2022-11-29T15:09:02.041Z,7.80
2022-11-29T15:11:41.004Z,7.10
2022-11-29T15:14:34.122Z,6.90
2022-11-29T15:17:29.700Z,7.50
2022-11-29T15:20:41.517Z,7.50
2022-11-29T15:23:15.301Z,7.30
2022-11-29T15:25:52.069Z,8.40
2022-11-29T15:28:25.329Z,9.60
2022-11-29T15:31:08.814Z,9.40
2022-11-29T15:33:39.405Z,9.60
2022-11-29T15:36:10.506Z,11.10
2022-11-29T15:38:43.671Z,10.80
2022-11-29T15:41:33.613Z,11.40
2022-11-29T15:44:05.301Z,12.40
2022-11-29T15:46:34.541Z,12.90
2022-11-29T15:49:17.749Z,14.40
2022-11-29T15:51:56.411Z,15.10
2022-11-29T15:54:33.392Z,13.80
2022-11-29T15:57:05.072Z,14.10
2022-11-29T16:00:02.071Z,14.70
2022-11-29T16:02:36.432Z,14.60
2022-11-29T16:05:15.894Z,14.70
2022-11-29T16:07:45.271Z,14.10
2022-11-29T16:10:16.536Z,13.30
2022-11-29T16:12:57.321Z,13.10
2022-11-29T16:15:32.310Z,14.30
2022-11-29T16:18:14.267Z,13.30
2022-11-29T16:20:41.095Z,13.10
2022-11-29T16:23:12.721Z,11.90
2022-11-29T16:25:59.299Z,11.90
2022-11-29T16:28:33.784Z,12.60
2022-11-29T16:31:00.604Z,12.00
2022-11-29T16:33:27.720Z,12.30
2022-11-29T16:36:16.976Z,13.30
2022-11-29T16:38:54.775Z,11.40
2022-11-29T16:41:37.967Z,11.30
2022-11-29T16:44:43.698Z,12.80
2022-11-29T16:47:22.602Z,11.60
2022-11-29T16:50:01.486Z,11.60
2022-11-29T16:52:32.372Z,11.30
2022-11-29T16:54:59.722Z,12.60
2022-11-29T16:57:28.482Z,12.50
2022-11-29T16:59:55.372Z,12.70
2022-11-29T17:02:22.232Z,13.00
2022-11-29T17:04:50.723Z,11.50
2022-11-29T17:07:26.707Z,12.10
2022-11-29T17:09:54.197Z,12.00
2022-11-29T17:12:20.937Z,11.80
2022-11-29T17:14:47.901Z,12.00
2022-11-29T17:17:17.718Z,11.70
2022-11-29T17:19:45.199Z,11.80
2022-11-29T17:22:12.254Z,11.30
2022-11-29T17:24:43.565Z,11.80
2022-11-29T17:27:14.392Z,12.30
2022-11-29T17:29:41.094Z,11.40
2022-11-29T17:32:07.908Z,11.50
2022-11-29T17:34:34.648Z,11.80
2022-11-29T17:37:01.463Z,13.40
2022-11-29T17:39:28.322Z,12.90
2022-11-29T17:41:55.214Z,11.80
2022-11-29T17:44:22.212Z,12.30
2022-11-29T17:46:48.956Z,12.10
2022-11-29T17:49:17.955Z,12.30
2022-11-29T17:51:53.315Z,12.40
2022-11-29T17:54:24.136Z,12.30
2022-11-29T17:56:51.370Z,13.20
2022-11-29T17:59:18.919Z,13.20
2022-11-29T18:01:48.494Z,15.40
2022-11-29T18:04:17.137Z,14.20
2022-11-29T18:06:48.841Z,13.60
2022-11-29T18:09:16.540Z,13.70
2022-11-29T18:11:48.781Z,13.40
2022-11-29T18:14:22.923Z,14.20
2022-11-29T18:16:50.339Z,14.20
2022-11-29T18:19:20.418Z,14.40
2022-11-29T18:21:48.879Z,14.40
2022-11-29T18:24:15.677Z,14.50
2022-11-29T18:26:43.280Z,14.00
2022-11-29T18:29:10.541Z,14.90
2022-11-29T18:31:40.919Z,14.80
2022-11-29T18:34:10.288Z,15.00
2022-11-29T18:36:44.361Z,14.90
2022-11-29T18:39:14.479Z,14.60
2022-11-29T18:41:47.472Z,16.00
2022-11-29T18:44:18.894Z,15.10
2022-11-29T18:49:16.234Z,14.80
2022-11-29T18:51:45.562Z,16.20
2022-11-29T18:54:14.428Z,16.90
2022-11-29T18:56:42.698Z,16.00
2022-11-29T18:59:18.331Z,16.70
2022-11-29T19:01:47.090Z,17.00
2022-11-29T19:04:17.560Z,17.10
2022-11-29T19:06:44.609Z,16.40
2022-11-29T19:09:15.464Z,17.20
2022-11-29T19:11:42.281Z,17.20
2022-11-29T19:14:10.692Z,16.30
2022-11-29T19:16:43.240Z,17.30
2022-11-29T19:19:11.215Z,17.70
2022-11-29T19:21:39.231Z,16.60
2022-11-29T19:24:12.845Z,16.70
2022-11-29T19:26:40.722Z,16.50
2022-11-29T19:29:07.460Z,18.10
2022-11-29T19:31:34.141Z,16.70
2022-11-29T19:34:01.130Z,19.30
2022-11-29T19:36:30.918Z,19.50
2022-11-29T19:39:00.616Z,18.90
2022-11-29T19:41:29.508Z,18.70
2022-11-29T19:43:59.366Z,18.80
2022-11-29T19:46:30.027Z,18.20
2022-11-29T19:49:00.250Z,20.30
2022-11-29T19:51:28.221Z,20.00
2022-11-29T19:53:57.904Z,20.20
2022-11-29T19:56:25.595Z,18.40
2022-11-29T19:58:52.512Z,18.80
2022-11-29T20:01:24.472Z,20.10
2022-11-29T20:03:51.937Z,18.60
2022-11-29T20:06:19.117Z,19.10
2022-11-29T20:08:46.483Z,19.10
2022-11-29T20:11:22.438Z,19.30
2022-11-29T20:13:56.692Z,20.30
2022-11-29T20:16:25.027Z,20.20
2022-11-29T20:18:52.910Z,20.50
2022-11-29T20:21:31.599Z,22.40
2022-11-29T20:24:05.269Z,21.10
2022-11-29T20:26:35.557Z,20.70
2022-11-29T20:29:04.191Z,19.30
2022-11-29T20:31:33.903Z,19.00
2022-11-29T20:34:00.933Z,19.90
2022-11-29T20:37:06.768Z,19.10
2022-11-29T20:39:52.270Z,19.20
2022-11-29T20:42:28.045Z,17.50
2022-11-29T20:44:58.485Z,17.60
2022-11-29T20:47:32.393Z,18.90
2022-11-29T20:49:59.267Z,15.50
2022-11-29T20:53:06.063Z,16.80
2022-11-29T20:55:32.847Z,16.60
2022-11-29T20:57:59.528Z,15.60
2022-11-29T21:00:26.221Z,16.00
2022-11-29T21:02:52.957Z,15.50
2022-11-29T21:05:19.742Z,15.30
2022-11-29T21:07:46.612Z,15.40
2022-11-29T21:10:14.977Z,15.70
2022-11-29T21:12:44.980Z,14.70
2022-11-29T21:15:14.052Z,15.50
2022-11-29T21:17:42.480Z,15.00
2022-11-29T21:20:21.417Z,13.50
2022-11-29T21:23:19.359Z,15.80
2022-11-29T21:26:20.631Z,15.20
2022-11-29T21:29:11.310Z,14.40
2022-11-29T21:31:38.935Z,14.50
2022-11-29T21:34:05.789Z,13.90
2022-11-29T21:36:32.521Z,14.80
2022-11-29T21:39:03.583Z,13.60
2022-11-29T21:41:31.951Z,14.90
2022-11-29T21:44:06.519Z,14.30
2022-11-29T21:46:34.871Z,12.60
2022-11-29T21:49:01.723Z,12.40
2022-11-29T21:51:28.438Z,13.50
2022-11-29T21:53:55.127Z,12.50
2022-11-29T21:56:22.019Z,12.20
2022-11-29T21:58:48.720Z,11.50
2022-11-29T22:01:18.617Z,11.30
2022-11-29T22:03:45.691Z,11.10
2022-11-29T22:06:18.095Z,12.20
2022-11-29T22:08:44.818Z,11.60
2022-11-29T22:11:29.912Z,11.10
2022-11-29T22:14:17.233Z,11.30
2022-11-29T22:16:49.065Z,10.00
2022-11-29T22:19:34.064Z,12.00
2022-11-29T22:22:04.676Z,11.40
2022-11-29T22:24:35.072Z,11.60
2022-11-29T22:27:02.205Z,12.50
2022-11-29T22:29:28.852Z,11.60
2022-11-29T22:31:56.606Z,11.50
2022-11-29T22:34:26.270Z,12.00
2022-11-29T22:36:53.245Z,11.30
2022-11-29T22:39:19.956Z,11.70
2022-11-29T22:41:52.265Z,11.60
2022-11-29T22:44:20.661Z,12.10
2022-11-29T22:46:47.427Z,11.70
2022-11-29T22:49:14.214Z,12.00
2022-11-29T22:51:41.032Z,11.30
2022-11-29T22:54:10.788Z,11.20
2022-11-29T22:56:40.075Z,11.30
2022-11-29T22:59:08.170Z,11.10
2022-11-29T23:01:38.252Z,11.50
2022-11-29T23:04:07.453Z,12.00
2022-11-29T23:06:38.334Z,12.80
2022-11-29T23:09:20.355Z,13.30
2022-11-29T23:11:55.570Z,10.40
2022-11-29T23:14:23.205Z,12.00
2022-11-29T23:16:50.591Z,11.60
2022-11-29T23:19:17.523Z,10.80
2022-11-29T23:21:45.099Z,10.90
2022-11-29T23:24:13.089Z,10.10
2022-11-29T23:26:43.939Z,11.00
2022-11-29T23:29:14.689Z,10.80
2022-11-29T23:31:42.086Z,9.90
2022-11-29T23:34:11.229Z,11.30
2022-11-29T23:36:37.931Z,11.50
2022-11-29T23:39:05.963Z,10.60
2022-11-29T23:41:35.028Z,10.60
2022-11-29T23:44:05.298Z,11.10
2022-11-29T23:46:33.985Z,11.50
2022-11-29T23:49:00.645Z,10.90
2022-11-29T23:51:27.290Z,12.50
2022-11-29T23:53:54.227Z,11.80
2022-11-29T23:56:21.932Z,12.00
2022-11-29T23:58:49.045Z,11.30
